Hunter D — WDI8653 — position and weather

sailwx.info

Track history (hours):
 
Tides and Currents Weather Stations Pressure Air Temp Water Temp Dewpoint Dewpoint Depression Visibility Wind Speed Wind Dir Waves Ship Positions

Hunter D

Owner: Harley Marine Services, Inc, Seattle, WA. More information available from US FCC via Universal Licensing System and Coast Guard Vessel Documentation Center.

Last reported at 2018-Feb-20 22:37 UTC. Time now 2018-Feb-22 11:05 UTC.
Position N 47°17' W 122°26'.

Length 35 m; draft 4.5 m.

Type: Tug. MMSI: 367740770.

Date/timePositionNaut miles runAvg speedWind from/ knotsBaromVisibWave heightAir tempDewpointWater temp
2018-Feb-20 22:37N 47°17' W 122°26'1 9.6
2018-Feb-20 22:30N 47°17' W 122°27'4 7.5
2018-Feb-20 22:00N 47°21' W 122°25'4 7.8
2018-Feb-20 21:30N 47°25' W 122°23'5 9.1
2018-Feb-20 21:00N 47°29' W 122°24'5 9.8
2018-Feb-20 20:30N 47°34' W 122°25'3 0.1
2018-Feb-18 17:13N 47°36' W 122°21'0 1.3
2018-Feb-18 16:59N 47°36' W 122°22'2 4.9
2018-Feb-18 16:31N 47°35' W 122°25'4 7.1
2018-Feb-18 16:00N 47°32' W 122°25'4 7.3
2018-Feb-18 15:31N 47°28' W 122°24'4 7.1
2018-Feb-18 15:01N 47°25' W 122°22'3 6.0
2018-Feb-18 14:31N 47°22' W 122°22'3 7.0
2018-Feb-18 14:01N 47°20' W 122°26'3 5.1
2018-Feb-18 13:29N 47°17' W 122°27'1 0.5
2018-Feb-18 11:01N 47°17' W 122°26'0 5.9
2018-Feb-18 11:00N 47°17' W 122°26'1 0.0
2018-Feb-17 15:27N 47°17' W 122°25'2 3.3
2018-Feb-17 14:55N 47°17' W 122°27'1 2.7
2018-Feb-17 14:30N 47°18' W 122°28'3 6.1
2018-Feb-17 14:00N 47°21' W 122°26'3 6.4
2018-Feb-17 13:30N 47°23' W 122°22'4 7.3
2018-Feb-17 13:00N 47°26' W 122°25'4 7.0
2018-Feb-17 12:31N 47°30' W 122°26'4 7.0
2018-Feb-17 12:00N 47°33' W 122°27'3 7.1
2018-Feb-17 11:30N 47°37' W 122°28'4 7.1
2018-Feb-17 11:01N 47°40' W 122°29'3 6.6
2018-Feb-17 10:30N 47°43' W 122°27'3 6.2
2018-Feb-17 10:01N 47°46' W 122°25'1 2.2
2018-Feb-17 09:30N 47°47' W 122°24'0 0.5
2018-Feb-17 09:00N 47°47' W 122°24'0 0.0
2018-Feb-17 08:27N 47°47' W 122°24'0 0.0
2018-Feb-17 07:57N 47°47' W 122°24'0 0.0
2018-Feb-17 07:30N 47°47' W 122°24'0 0.0
2018-Feb-17 07:00N 47°47' W 122°24'0 0.0
2018-Feb-17 06:30N 47°47' W 122°24'0 0.0
2018-Feb-17 06:00N 47°47' W 122°24'0 0.0
2018-Feb-17 05:30N 47°47' W 122°24'0 0.0
2018-Feb-17 04:57N 47°47' W 122°24'0 0.0
2018-Feb-17 04:30N 47°47' W 122°24'0 0.0
2018-Feb-17 04:00N 47°47' W 122°24'0 0.0
2018-Feb-17 03:30N 47°47' W 122°24'0 0.0
2018-Feb-17 02:57N 47°47' W 122°24'0 0.0
2018-Feb-17 02:30N 47°47' W 122°24'0 0.0
2018-Feb-17 02:00N 47°47' W 122°24'0 0.0
2018-Feb-17 01:30N 47°47' W 122°24'0 0.0
2018-Feb-17 01:00N 47°47' W 122°24'0 0.8
2018-Feb-17 00:30N 47°47' W 122°24'2 3.3
2018-Feb-17 00:00N 47°45' W 122°25'0 0.9
2018-Feb-16 23:30N 47°45' W 122°25'1 2.7
2018-Feb-16 23:01N 47°46' W 122°25'1 2.5
2018-Feb-16 22:30N 47°48' W 122°24'2 3.4
2018-Feb-16 22:00N 47°46' W 122°25'2 4.4
2018-Feb-16 21:30N 47°44' W 122°26'3 5.1
2018-Feb-16 21:00N 47°41' W 122°26'3 5.8
2018-Feb-16 20:30N 47°38' W 122°26'3 5.6
2018-Feb-16 20:00N 47°36' W 122°23'2 0.0
2018-Feb-15 02:33N 47°36' W 122°21'0 0.2
2018-Feb-15 00:39N 47°36' W 122°21'0 1.1
2018-Feb-15 00:31N 47°36' W 122°21'1 0.2
2018-Feb-14 21:18N 47°36' W 122°23'2 5.6
2018-Feb-14 21:00N 47°37' W 122°24'3 6.7
2018-Feb-14 20:31N 47°40' W 122°27'4 7.6
2018-Feb-14 20:00N 47°43' W 122°25'4 7.1
2018-Feb-14 19:30N 47°47' W 122°24'0 0.4
2018-Feb-14 19:00N 47°47' W 122°24'0 0.0
2018-Feb-14 18:30N 47°47' W 122°24'0 0.0
2018-Feb-14 18:00N 47°47' W 122°24'0 0.0
2018-Feb-14 17:27N 47°47' W 122°24'0 0.0
2018-Feb-14 17:00N 47°47' W 122°24'0 0.0
2018-Feb-14 16:30N 47°47' W 122°24'0 0.0
2018-Feb-14 15:57N 47°47' W 122°24'0 0.0
2018-Feb-14 15:30N 47°47' W 122°24'0 0.0
2018-Feb-14 15:00N 47°47' W 122°24'0 0.0
2018-Feb-14 14:30N 47°47' W 122°24'0 0.0
2018-Feb-14 13:57N 47°47' W 122°24'0 0.0
2018-Feb-14 13:24N 47°47' W 122°24'0 0.0
2018-Feb-14 13:00N 47°47' W 122°24'0 0.0
2018-Feb-14 12:27N 47°47' W 122°24'0 0.0
2018-Feb-14 11:57N 47°47' W 122°24'0 0.0
2018-Feb-14 11:27N 47°47' W 122°24'0 0.0
2018-Feb-14 11:00N 47°47' W 122°24'0 0.0
2018-Feb-14 10:30N 47°47' W 122°24'0 0.0
2018-Feb-14 09:57N 47°47' W 122°24'0 0.0
2018-Feb-14 09:24N 47°47' W 122°24'0 0.0
2018-Feb-14 09:00N 47°47' W 122°24'0 0.0
2018-Feb-14 08:30N 47°47' W 122°24'0 0.0
2018-Feb-14 08:00N 47°47' W 122°24'0 0.0
2018-Feb-14 07:27N 47°47' W 122°24'0 0.0
2018-Feb-14 07:00N 47°47' W 122°24'0 0.0
2018-Feb-14 06:30N 47°47' W 122°24'0 0.0
2018-Feb-14 05:54N 47°47' W 122°24'0 0.0
2018-Feb-14 05:30N 47°47' W 122°24'0 0.0
2018-Feb-14 04:57N 47°47' W 122°24'0 0.0
2018-Feb-14 04:30N 47°47' W 122°24'0 0.0
2018-Feb-14 04:00N 47°47' W 122°24'0 0.0
2018-Feb-14 03:27N 47°47' W 122°24'0 0.0
2018-Feb-14 02:57N 47°47' W 122°24'0 0.0
2018-Feb-14 02:30N 47°47' W 122°24'0 0.0
2018-Feb-14 02:00N 47°47' W 122°24'0 0.0
2018-Feb-14 01:30N 47°47' W 122°24'0 0.0
2018-Feb-14 00:57N 47°47' W 122°24'0 0.0
2018-Feb-14 00:30N 47°47' W 122°24'0 0.0
2018-Feb-14 00:00N 47°47' W 122°24'0 0.9
2018-Feb-13 23:31N 47°47' W 122°24'2 3.7
2018-Feb-13 23:01N 47°49' W 122°26'3 6.4
2018-Feb-13 22:30N 47°52' W 122°28'3 6.6
2018-Feb-13 22:01N 47°55' W 122°30'34 6.3
2018-Feb-13 16:31N 48°28' W 122°44'3 6.8
2018-Feb-13 16:03N 48°31' W 122°43'1 5.5
2018-Feb-13 15:56N 48°31' W 122°42'3 6.3
2018-Feb-13 15:30N 48°31' W 122°38'2 4.2
2018-Feb-13 15:00N 48°31' W 122°35'1 1.7
2018-Feb-13 14:25N 48°30' W 122°34'0 0.0
2018-Feb-13 13:55N 48°30' W 122°34'0 0.0
2018-Feb-13 13:25N 48°30' W 122°34'0 0.0
2018-Feb-13 12:55N 48°30' W 122°34'0 0.0
2018-Feb-13 12:25N 48°30' W 122°34'0 0.0
2018-Feb-13 11:49N 48°30' W 122°34'0 0.0
2018-Feb-13 11:19N 48°30' W 122°34'0 0.0
2018-Feb-13 10:55N 48°30' W 122°34'0 0.0
2018-Feb-13 10:25N 48°30' W 122°34'0 0.0
2018-Feb-13 09:55N 48°30' W 122°34'0 0.0
2018-Feb-13 09:25N 48°30' W 122°34'0 0.0
2018-Feb-13 08:49N 48°30' W 122°34'0 0.0
2018-Feb-13 08:25N 48°30' W 122°34'0 0.0
2018-Feb-13 07:55N 48°30' W 122°34'0 0.0
2018-Feb-13 07:19N 48°30' W 122°34'0 0.0
2018-Feb-13 06:49N 48°30' W 122°34'0 0.0
2018-Feb-13 06:25N 48°30' W 122°34'0 0.0
2018-Feb-13 05:55N 48°30' W 122°34'0 0.0
2018-Feb-13 05:25N 48°30' W 122°34'0 0.0
2018-Feb-13 04:55N 48°30' W 122°34'0 0.0
2018-Feb-13 04:25N 48°30' W 122°34'0 0.0
2018-Feb-13 03:55N 48°30' W 122°34'0 0.0
2018-Feb-13 03:25N 48°30' W 122°34'0 0.0
2018-Feb-13 02:55N 48°30' W 122°34'0 0.0
2018-Feb-13 02:25N 48°30' W 122°34'0 0.0
2018-Feb-13 01:55N 48°30' W 122°34'0 0.0
2018-Feb-13 01:25N 48°30' W 122°34'0 0.0
2018-Feb-13 00:55N 48°30' W 122°34'0 0.0
2018-Feb-13 00:25N 48°30' W 122°34'0 0.0
2018-Feb-12 23:55N 48°30' W 122°34'0 0.0
2018-Feb-12 23:25N 48°30' W 122°34'0 0.0
2018-Feb-12 22:55N 48°30' W 122°34'0 0.0
2018-Feb-12 22:25N 48°30' W 122°34'0 0.0
2018-Feb-12 21:49N 48°30' W 122°34'0 0.0
2018-Feb-12 21:13N 48°30' W 122°34'0 0.0
2018-Feb-12 20:49N 48°30' W 122°34'0 0.0
2018-Feb-12 20:25N 48°30' W 122°34'0 0.0
2018-Feb-12 19:49N 48°30' W 122°34'0 0.0
2018-Feb-12 19:25N 48°30' W 122°34'0 0.0
2018-Feb-12 18:55N 48°30' W 122°34'0 0.0
2018-Feb-12 18:25N 48°30' W 122°34'0 0.0
2018-Feb-12 17:55N 48°30' W 122°34'0 0.0
2018-Feb-12 17:25N 48°30' W 122°34'0 0.0
2018-Feb-12 16:55N 48°30' W 122°34'0 0.0
2018-Feb-12 16:25N 48°30' W 122°34'0 0.0
2018-Feb-12 15:13N 48°30' W 122°34'0 0.0
2018-Feb-12 14:55N 48°30' W 122°34'0 0.0
2018-Feb-12 14:01N 48°30' W 122°34'0 0.0
2018-Feb-12 13:55N 48°30' W 122°34'0 0.0
2018-Feb-12 13:25N 48°30' W 122°34'0 0.0
2018-Feb-12 12:55N 48°30' W 122°34'0 0.0
2018-Feb-12 12:30N 48°30' W 122°34'1 2.8
2018-Feb-12 12:00N 48°32' W 122°35'1 1.7
2018-Feb-12 11:30N 48°32' W 122°37'3 5.0
2018-Feb-12 10:59N 48°31' W 122°40'3 5.2
2018-Feb-12 10:26N 48°29' W 122°44'33 5.2
2018-Feb-12 04:00N 47°57' W 122°32'3 6.4
2018-Feb-12 03:30N 47°55' W 122°29'4 7.4
2018-Feb-12 03:00N 47°51' W 122°27'4 7.3
2018-Feb-12 02:30N 47°48' W 122°26'4 7.3
2018-Feb-12 01:59N 47°44' W 122°26'3 7.1
2018-Feb-12 01:30N 47°40' W 122°27'3 6.9
2018-Feb-12 01:01N 47°37' W 122°25'  
Track history (hours):
 
Tides and Currents Weather Stations Pressure Air Temp Water Temp Dewpoint Dewpoint Depression Visibility Wind Speed Wind Dir Waves Ship Positions

Hunter D

Owner: Harley Marine Services, Inc, Seattle, WA. More information available from US FCC via Universal Licensing System and Coast Guard Vessel Documentation Center.

Last reported at 2018-Feb-20 22:37 UTC. Time now 2018-Feb-22 11:05 UTC.
Position N 47°17' W 122°26'.

Length 35 m; draft 4.5 m.

Type: Tug. MMSI: 367740770.

Date/timePositionNaut miles runAvg speedWind from/ knotsBaromVisibWave heightAir tempDewpointWater temp
2018-Feb-20 22:37N 47°17' W 122°26'1 9.6
2018-Feb-20 22:30N 47°17' W 122°27'4 7.5
2018-Feb-20 22:00N 47°21' W 122°25'4 7.8
2018-Feb-20 21:30N 47°25' W 122°23'5 9.1
2018-Feb-20 21:00N 47°29' W 122°24'5 9.8
2018-Feb-20 20:30N 47°34' W 122°25'3 0.1
2018-Feb-18 17:13N 47°36' W 122°21'0 1.3
2018-Feb-18 16:59N 47°36' W 122°22'2 4.9
2018-Feb-18 16:31N 47°35' W 122°25'4 7.1
2018-Feb-18 16:00N 47°32' W 122°25'4 7.3
2018-Feb-18 15:31N 47°28' W 122°24'4 7.1
2018-Feb-18 15:01N 47°25' W 122°22'3 6.0
2018-Feb-18 14:31N 47°22' W 122°22'3 7.0
2018-Feb-18 14:01N 47°20' W 122°26'3 5.1
2018-Feb-18 13:29N 47°17' W 122°27'1 0.5
2018-Feb-18 11:01N 47°17' W 122°26'0 5.9
2018-Feb-18 11:00N 47°17' W 122°26'1 0.0
2018-Feb-17 15:27N 47°17' W 122°25'2 3.3
2018-Feb-17 14:55N 47°17' W 122°27'1 2.7
2018-Feb-17 14:30N 47°18' W 122°28'3 6.1
2018-Feb-17 14:00N 47°21' W 122°26'3 6.4
2018-Feb-17 13:30N 47°23' W 122°22'4 7.3
2018-Feb-17 13:00N 47°26' W 122°25'4 7.0
2018-Feb-17 12:31N 47°30' W 122°26'4 7.0
2018-Feb-17 12:00N 47°33' W 122°27'3 7.1
2018-Feb-17 11:30N 47°37' W 122°28'4 7.1
2018-Feb-17 11:01N 47°40' W 122°29'3 6.6
2018-Feb-17 10:30N 47°43' W 122°27'3 6.2
2018-Feb-17 10:01N 47°46' W 122°25'1 2.2
2018-Feb-17 09:30N 47°47' W 122°24'0 0.5
2018-Feb-17 09:00N 47°47' W 122°24'0 0.0
2018-Feb-17 08:27N 47°47' W 122°24'0 0.0
2018-Feb-17 07:57N 47°47' W 122°24'0 0.0
2018-Feb-17 07:30N 47°47' W 122°24'0 0.0
2018-Feb-17 07:00N 47°47' W 122°24'0 0.0
2018-Feb-17 06:30N 47°47' W 122°24'0 0.0
2018-Feb-17 06:00N 47°47' W 122°24'0 0.0
2018-Feb-17 05:30N 47°47' W 122°24'0 0.0
2018-Feb-17 04:57N 47°47' W 122°24'0 0.0
2018-Feb-17 04:30N 47°47' W 122°24'0 0.0
2018-Feb-17 04:00N 47°47' W 122°24'0 0.0
2018-Feb-17 03:30N 47°47' W 122°24'0 0.0
2018-Feb-17 02:57N 47°47' W 122°24'0 0.0
2018-Feb-17 02:30N 47°47' W 122°24'0 0.0
2018-Feb-17 02:00N 47°47' W 122°24'0 0.0
2018-Feb-17 01:30N 47°47' W 122°24'0 0.0
2018-Feb-17 01:00N 47°47' W 122°24'0 0.8
2018-Feb-17 00:30N 47°47' W 122°24'2 3.3
2018-Feb-17 00:00N 47°45' W 122°25'0 0.9
2018-Feb-16 23:30N 47°45' W 122°25'1 2.7
2018-Feb-16 23:01N 47°46' W 122°25'1 2.5
2018-Feb-16 22:30N 47°48' W 122°24'2 3.4
2018-Feb-16 22:00N 47°46' W 122°25'2 4.4
2018-Feb-16 21:30N 47°44' W 122°26'3 5.1
2018-Feb-16 21:00N 47°41' W 122°26'3 5.8
2018-Feb-16 20:30N 47°38' W 122°26'3 5.6
2018-Feb-16 20:00N 47°36' W 122°23'2 0.0
2018-Feb-15 02:33N 47°36' W 122°21'0 0.2
2018-Feb-15 00:39N 47°36' W 122°21'0 1.1
2018-Feb-15 00:31N 47°36' W 122°21'1 0.2
2018-Feb-14 21:18N 47°36' W 122°23'2 5.6
2018-Feb-14 21:00N 47°37' W 122°24'3 6.7
2018-Feb-14 20:31N 47°40' W 122°27'4 7.6
2018-Feb-14 20:00N 47°43' W 122°25'4 7.1
2018-Feb-14 19:30N 47°47' W 122°24'0 0.4
2018-Feb-14 19:00N 47°47' W 122°24'0 0.0
2018-Feb-14 18:30N 47°47' W 122°24'0 0.0
2018-Feb-14 18:00N 47°47' W 122°24'0 0.0
2018-Feb-14 17:27N 47°47' W 122°24'0 0.0
2018-Feb-14 17:00N 47°47' W 122°24'0 0.0
2018-Feb-14 16:30N 47°47' W 122°24'0 0.0
2018-Feb-14 15:57N 47°47' W 122°24'0 0.0
2018-Feb-14 15:30N 47°47' W 122°24'0 0.0
2018-Feb-14 15:00N 47°47' W 122°24'0 0.0
2018-Feb-14 14:30N 47°47' W 122°24'0 0.0
2018-Feb-14 13:57N 47°47' W 122°24'0 0.0
2018-Feb-14 13:24N 47°47' W 122°24'0 0.0
2018-Feb-14 13:00N 47°47' W 122°24'0 0.0
2018-Feb-14 12:27N 47°47' W 122°24'0 0.0
2018-Feb-14 11:57N 47°47' W 122°24'0 0.0
2018-Feb-14 11:27N 47°47' W 122°24'0 0.0
2018-Feb-14 11:00N 47°47' W 122°24'0 0.0
2018-Feb-14 10:30N 47°47' W 122°24'0 0.0
2018-Feb-14 09:57N 47°47' W 122°24'0 0.0
2018-Feb-14 09:24N 47°47' W 122°24'0 0.0
2018-Feb-14 09:00N 47°47' W 122°24'0 0.0
2018-Feb-14 08:30N 47°47' W 122°24'0 0.0
2018-Feb-14 08:00N 47°47' W 122°24'0 0.0
2018-Feb-14 07:27N 47°47' W 122°24'0 0.0
2018-Feb-14 07:00N 47°47' W 122°24'0 0.0
2018-Feb-14 06:30N 47°47' W 122°24'0 0.0
2018-Feb-14 05:54N 47°47' W 122°24'0 0.0
2018-Feb-14 05:30N 47°47' W 122°24'0 0.0
2018-Feb-14 04:57N 47°47' W 122°24'0 0.0
2018-Feb-14 04:30N 47°47' W 122°24'0 0.0
2018-Feb-14 04:00N 47°47' W 122°24'0 0.0
2018-Feb-14 03:27N 47°47' W 122°24'0 0.0
2018-Feb-14 02:57N 47°47' W 122°24'0 0.0
2018-Feb-14 02:30N 47°47' W 122°24'0 0.0
2018-Feb-14 02:00N 47°47' W 122°24'0 0.0
2018-Feb-14 01:30N 47°47' W 122°24'0 0.0
2018-Feb-14 00:57N 47°47' W 122°24'0 0.0
2018-Feb-14 00:30N 47°47' W 122°24'0 0.0
2018-Feb-14 00:00N 47°47' W 122°24'0 0.9
2018-Feb-13 23:31N 47°47' W 122°24'2 3.7
2018-Feb-13 23:01N 47°49' W 122°26'3 6.4
2018-Feb-13 22:30N 47°52' W 122°28'3 6.6
2018-Feb-13 22:01N 47°55' W 122°30'34 6.3
2018-Feb-13 16:31N 48°28' W 122°44'3 6.8
2018-Feb-13 16:03N 48°31' W 122°43'1 5.5
2018-Feb-13 15:56N 48°31' W 122°42'3 6.3
2018-Feb-13 15:30N 48°31' W 122°38'2 4.2
2018-Feb-13 15:00N 48°31' W 122°35'1 1.7
2018-Feb-13 14:25N 48°30' W 122°34'0 0.0
2018-Feb-13 13:55N 48°30' W 122°34'0 0.0
2018-Feb-13 13:25N 48°30' W 122°34'0 0.0
2018-Feb-13 12:55N 48°30' W 122°34'0 0.0
2018-Feb-13 12:25N 48°30' W 122°34'0 0.0
2018-Feb-13 11:49N 48°30' W 122°34'0 0.0
2018-Feb-13 11:19N 48°30' W 122°34'0 0.0
2018-Feb-13 10:55N 48°30' W 122°34'0 0.0
2018-Feb-13 10:25N 48°30' W 122°34'0 0.0
2018-Feb-13 09:55N 48°30' W 122°34'0 0.0
2018-Feb-13 09:25N 48°30' W 122°34'0 0.0
2018-Feb-13 08:49N 48°30' W 122°34'0 0.0
2018-Feb-13 08:25N 48°30' W 122°34'0 0.0
2018-Feb-13 07:55N 48°30' W 122°34'0 0.0
2018-Feb-13 07:19N 48°30' W 122°34'0 0.0
2018-Feb-13 06:49N 48°30' W 122°34'0 0.0
2018-Feb-13 06:25N 48°30' W 122°34'0 0.0
2018-Feb-13 05:55N 48°30' W 122°34'0 0.0
2018-Feb-13 05:25N 48°30' W 122°34'0 0.0
2018-Feb-13 04:55N 48°30' W 122°34'0 0.0
2018-Feb-13 04:25N 48°30' W 122°34'0 0.0
2018-Feb-13 03:55N 48°30' W 122°34'0 0.0
2018-Feb-13 03:25N 48°30' W 122°34'0 0.0
2018-Feb-13 02:55N 48°30' W 122°34'0 0.0
2018-Feb-13 02:25N 48°30' W 122°34'0 0.0
2018-Feb-13 01:55N 48°30' W 122°34'0 0.0
2018-Feb-13 01:25N 48°30' W 122°34'0 0.0
2018-Feb-13 00:55N 48°30' W 122°34'0 0.0
2018-Feb-13 00:25N 48°30' W 122°34'0 0.0
2018-Feb-12 23:55N 48°30' W 122°34'0 0.0
2018-Feb-12 23:25N 48°30' W 122°34'0 0.0
2018-Feb-12 22:55N 48°30' W 122°34'0 0.0
2018-Feb-12 22:25N 48°30' W 122°34'0 0.0
2018-Feb-12 21:49N 48°30' W 122°34'0 0.0
2018-Feb-12 21:13N 48°30' W 122°34'0 0.0
2018-Feb-12 20:49N 48°30' W 122°34'0 0.0
2018-Feb-12 20:25N 48°30' W 122°34'0 0.0
2018-Feb-12 19:49N 48°30' W 122°34'0 0.0
2018-Feb-12 19:25N 48°30' W 122°34'0 0.0
2018-Feb-12 18:55N 48°30' W 122°34'0 0.0
2018-Feb-12 18:25N 48°30' W 122°34'0 0.0
2018-Feb-12 17:55N 48°30' W 122°34'0 0.0
2018-Feb-12 17:25N 48°30' W 122°34'0 0.0
2018-Feb-12 16:55N 48°30' W 122°34'0 0.0
2018-Feb-12 16:25N 48°30' W 122°34'0 0.0
2018-Feb-12 15:13N 48°30' W 122°34'0 0.0
2018-Feb-12 14:55N 48°30' W 122°34'0 0.0
2018-Feb-12 14:01N 48°30' W 122°34'0 0.0
2018-Feb-12 13:55N 48°30' W 122°34'0 0.0
2018-Feb-12 13:25N 48°30' W 122°34'0 0.0
2018-Feb-12 12:55N 48°30' W 122°34'0 0.0
2018-Feb-12 12:30N 48°30' W 122°34'1 2.8
2018-Feb-12 12:00N 48°32' W 122°35'1 1.7
2018-Feb-12 11:30N 48°32' W 122°37'3 5.0
2018-Feb-12 10:59N 48°31' W 122°40'3 5.2
2018-Feb-12 10:26N 48°29' W 122°44'33 5.2
2018-Feb-12 04:00N 47°57' W 122°32'3 6.4
2018-Feb-12 03:30N 47°55' W 122°29'4 7.4
2018-Feb-12 03:00N 47°51' W 122°27'4 7.3
2018-Feb-12 02:30N 47°48' W 122°26'4 7.3
2018-Feb-12 01:59N 47°44' W 122°26'3 7.1
2018-Feb-12 01:30N 47°40' W 122°27'3 6.9
2018-Feb-12 01:01N 47°37' W 122°25'  

Dump ship's entire track history